Time;durP1;ratioP1;P1;durP2;ratioP2;P2;SDS_P1;SDS_P2;PMS_P1;PMS_P2;Temp;Humidity;BMP_temperature;BMP_pressure;BME280_temperature;BME280_humidity;BME280_pressure;Samples;Min_cycle;Max_cycle;Signal;HPM_P1;HPM_P2
2023/03/07 00:02:51;;;;;;;15.47;9.13;;;;;;;9.01;44.18;97627.16;7007775;28;20251;-81
2023/03/07 00:06:13;;;;;;;13.73;9.40;;;;;;;8.90;44.62;97644.81;7006980;28;20208;-81
2023/03/07 00:09:34;;;;;;;13.53;9.03;;;;;;;8.79;43.97;97596.38;7007015;28;20229;-82
2023/03/07 00:12:56;;;;;;;12.63;9.70;;;;;;;9.01;44.11;97638.69;7004493;28;20258;-80
2023/03/07 00:16:21;;;;;;;12.83;9.47;;;;;;;8.96;43.55;97641.22;7001965;28;20213;-80
2023/03/07 00:19:42;;;;;;;11.97;9.03;;;;;;;9.05;43.48;97632.66;6984343;28;20720;-83
2023/03/07 00:23:04;;;;;;;16.17;10.67;;;;;;;8.73;44.38;97629.50;6982061;28;20270;-80
2023/03/07 00:26:27;;;;;;;12.73;8.83;;;;;;;8.99;43.50;97630.06;6979259;28;20231;-80
2023/03/07 00:29:49;;;;;;;12.57;9.67;;;;;;;9.05;43.46;97627.28;6979675;28;20238;-80
2023/03/07 00:33:11;;;;;;;14.03;10.30;;;;;;;9.18;43.59;97637.06;6979160;28;20212;-80
2023/03/07 00:36:33;;;;;;;13.23;9.90;;;;;;;9.38;42.93;97638.47;6978421;28;20310;-82
2023/03/07 00:39:54;;;;;;;12.57;9.03;;;;;;;9.19;43.01;97636.84;6978913;28;20664;-81
2023/03/07 00:43:16;;;;;;;16.77;12.03;;;;;;;9.11;42.87;97596.81;6978273;28;20206;-81
2023/03/07 00:46:37;;;;;;;16.00;10.83;;;;;;;9.18;42.88;97620.94;6976762;28;20308;-81
2023/03/07 00:50:00;;;;;;;12.33;8.77;;;;;;;8.98;44.05;97631.91;6976434;28;20290;-80
2023/03/07 00:53:22;;;;;;;14.23;9.47;;;;;;;9.14;43.22;97609.81;6977120;28;20663;-81
2023/03/07 00:56:43;;;;;;;13.03;8.73;;;;;;;9.41;42.99;97611.13;6977161;28;20974;-80
2023/03/07 01:00:06;;;;;;;11.93;8.53;;;;;;;9.02;43.37;97608.09;6976587;28;20282;-81
2023/03/07 01:03:29;;;;;;;12.90;8.97;;;;;;;9.02;43.41;97600.84;6976750;28;20211;-81
2023/03/07 01:06:52;;;;;;;13.87;9.47;;;;;;;9.31;42.87;97599.25;6975373;28;20206;-81
2023/03/07 01:10:14;;;;;;;16.37;9.37;;;;;;;9.15;42.94;97594.50;6976985;28;20642;-81
2023/03/07 01:13:36;;;;;;;13.57;9.10;;;;;;;8.82;43.71;97586.00;6977231;28;20257;-81
2023/03/07 01:16:57;;;;;;;12.47;8.57;;;;;;;8.61;43.81;97599.03;6975579;28;20210;-81
2023/03/07 01:20:19;;;;;;;12.70;9.40;;;;;;;8.90;43.82;97588.38;6976200;28;20229;-81
2023/03/07 01:23:42;;;;;;;12.03;8.73;;;;;;;8.91;43.49;97586.53;6977336;28;20207;-81
2023/03/07 01:27:04;;;;;;;14.43;10.13;;;;;;;9.03;43.13;97596.31;6976687;28;20293;-81
2023/03/07 01:30:26;;;;;;;10.23;8.00;;;;;;;9.37;42.26;97587.59;6976616;28;20234;-81
2023/03/07 01:33:47;;;;;;;14.17;10.50;;;;;;;9.29;42.51;97578.00;6977392;28;20688;-81
2023/03/07 01:37:09;;;;;;;14.23;9.47;;;;;;;9.40;42.71;97579.88;6976476;28;20203;-84
2023/03/07 01:40:32;;;;;;;11.80;8.67;;;;;;;9.34;42.81;97582.69;6976595;28;20222;-81
2023/03/07 01:43:53;;;;;;;13.23;8.93;;;;;;;8.88;42.91;97586.94;6977120;28;20605;-81
2023/03/07 01:47:15;;;;;;;11.67;8.67;;;;;;;8.65;43.02;97584.94;6975621;28;20267;-81
2023/03/07 01:50:36;;;;;;;10.93;8.33;;;;;;;8.67;43.19;97577.47;6976596;28;20374;-80
2023/03/07 01:53:58;;;;;;;11.53;8.43;;;;;;;8.57;43.09;97574.50;6976012;28;20675;-81
2023/03/07 01:57:24;;;;;;;11.87;8.30;;;;;;;8.42;43.86;97567.84;6975814;28;20663;-81
2023/03/07 02:00:46;;;;;;;19.37;9.20;;;;;;;8.76;42.93;97562.69;6975677;28;20226;-81
2023/03/07 02:04:11;;;;;;;10.47;8.43;;;;;;;8.64;43.35;97569.88;6976536;28;20207;-80
2023/03/07 02:07:35;;;;;;;16.60;8.83;;;;;;;8.73;43.28;97562.34;6975749;28;20624;-80
2023/03/07 02:10:57;;;;;;;12.33;8.60;;;;;;;8.61;42.78;97564.91;6975926;28;20267;-81
2023/03/07 02:14:20;;;;;;;12.13;8.30;;;;;;;8.85;42.88;97547.09;6975186;28;20923;-81
2023/03/07 02:17:42;;;;;;;10.60;8.27;;;;;;;9.02;42.09;97558.91;6975306;28;20197;-80
2023/03/07 02:21:11;;;;;;;11.13;8.53;;;;;;;8.93;42.50;97553.00;6975596;28;20248;-82
2023/03/07 02:24:38;;;;;;;9.83;8.17;;;;;;;8.86;42.32;97538.00;6976221;28;20224;-82
2023/03/07 02:28:01;;;;;;;12.93;8.63;;;;;;;8.95;42.28;97552.78;6976163;28;20201;-81
2023/03/07 02:31:23;;;;;;;12.00;8.20;;;;;;;7.99;43.55;97529.34;6992058;28;20288;-81
2023/03/07 02:34:44;;;;;;;12.30;8.50;;;;;;;8.18;44.29;97555.19;6990841;28;20237;-81
2023/03/07 02:38:06;;;;;;;11.90;8.63;;;;;;;8.46;43.51;97553.72;6988130;28;20210;-81
2023/03/07 02:41:30;;;;;;;15.40;11.73;;;;;;;8.76;42.90;97556.50;6988477;28;20227;-81
2023/03/07 02:44:57;;;;;;;13.10;9.03;;;;;;;8.47;43.12;97541.09;6988278;28;20272;-81
2023/03/07 02:48:19;;;;;;;11.00;8.83;;;;;;;8.65;42.87;97549.16;6987316;28;20216;-81
2023/03/07 02:51:40;;;;;;;13.27;9.57;;;;;;;8.06;44.28;97552.41;6988413;28;20313;-81
2023/03/07 02:55:02;;;;;;;12.03;9.00;;;;;;;8.26;43.58;97549.59;6987811;28;20221;-81
2023/03/07 02:58:23;;;;;;;11.50;9.10;;;;;;;8.89;42.79;97540.25;6987309;28;20229;-81
2023/03/07 03:01:46;;;;;;;12.13;9.33;;;;;;;8.85;42.68;97531.78;6988336;28;20248;-81
2023/03/07 03:05:08;;;;;;;11.47;8.40;;;;;;;9.29;41.95;97508.06;6988311;28;20206;-81
2023/03/07 03:08:30;;;;;;;12.10;8.17;;;;;;;9.05;41.99;97510.88;6987795;28;20234;-81
2023/03/07 03:11:51;;;;;;;12.67;8.83;;;;;;;8.87;42.51;97508.22;6989150;28;20226;-81
2023/03/07 03:15:13;;;;;;;10.73;8.33;;;;;;;8.86;42.49;97511.94;6988267;28;20386;-81
2023/03/07 03:18:37;;;;;;;11.17;8.83;;;;;;;8.75;43.03;97515.38;6989271;28;20260;-81
2023/03/07 03:21:58;;;;;;;12.47;8.83;;;;;;;8.53;43.35;97516.88;6989377;28;20204;-81
2023/03/07 03:25:23;;;;;;;11.20;9.27;;;;;;;8.95;42.61;97507.88;6988272;28;20952;-81
2023/03/07 03:28:44;;;;;;;12.47;8.87;;;;;;;9.02;42.40;97508.63;6988591;28;20280;-81
2023/03/07 03:32:07;;;;;;;12.57;8.77;;;;;;;8.53;42.94;97500.75;6989456;28;20699;-82
2023/03/07 03:35:30;;;;;;;9.60;8.10;;;;;;;8.90;42.81;97504.25;6989234;28;20275;-81
2023/03/07 03:38:52;;;;;;;12.90;8.87;;;;;;;9.16;42.47;97496.66;6989202;28;20285;-81
2023/03/07 03:42:13;;;;;;;14.83;8.97;;;;;;;9.15;42.08;97511.97;6990979;28;20229;-81
2023/03/07 03:45:35;;;;;;;11.50;9.00;;;;;;;8.96;42.40;97496.09;6990503;28;20263;-81
2023/03/07 03:48:56;;;;;;;13.40;9.20;;;;;;;8.66;42.93;97478.31;6990590;28;20245;-81
2023/03/07 03:52:19;;;;;;;14.60;9.80;;;;;;;9.13;42.24;97492.56;6994027;28;20246;-81
2023/03/07 03:55:41;;;;;;;13.20;9.23;;;;;;;9.13;42.69;97507.06;6993058;28;20612;-81
2023/03/07 03:59:03;;;;;;;13.73;9.03;;;;;;;9.38;42.22;97493.22;6978682;28;20246;-82
2023/03/07 04:02:25;;;;;;;13.10;9.60;;;;;;;8.75;42.84;97493.06;6978977;28;20296;-82
2023/03/07 04:05:46;;;;;;;14.00;9.63;;;;;;;9.16;42.10;97494.78;6978933;28;20249;-81
2023/03/07 04:09:09;;;;;;;12.90;9.00;;;;;;;9.35;42.47;97498.25;6978856;28;20834;-82
2023/03/07 04:12:31;;;;;;;10.10;8.63;;;;;;;9.51;41.65;97486.84;6979536;28;20680;-82
2023/03/07 04:15:53;;;;;;;12.43;9.00;;;;;;;9.25;41.96;97484.53;6977531;28;20289;-81
2023/03/07 04:19:14;;;;;;;12.40;9.17;;;;;;;8.94;42.20;97474.00;6979505;28;20222;-82
2023/03/07 04:22:36;;;;;;;14.93;9.87;;;;;;;8.24;44.21;97480.00;6979912;28;20285;-81
2023/03/07 04:26:00;;;;;;;12.40;8.97;;;;;;;8.93;42.59;97472.38;6980471;28;20277;-82
2023/03/07 04:29:22;;;;;;;13.93;9.80;;;;;;;8.98;42.96;97472.50;6980571;28;20303;-82
2023/03/07 04:32:43;;;;;;;12.97;9.10;;;;;;;9.07;42.66;97463.91;6981248;28;20213;-81
2023/03/07 04:36:05;;;;;;;14.80;9.13;;;;;;;8.65;43.23;97468.56;6980668;28;20672;-81
2023/03/07 04:39:27;;;;;;;12.80;9.40;;;;;;;8.82;42.59;97473.13;6993785;28;20229;-81
2023/03/07 04:42:49;;;;;;;14.63;10.03;;;;;;;8.85;42.67;97472.66;6990825;28;20299;-81
2023/03/07 04:46:13;;;;;;;16.13;10.60;;;;;;;8.59;43.47;97469.47;6991939;28;20297;-81
2023/03/07 04:49:34;;;;;;;16.33;10.10;;;;;;;8.96;42.73;97465.72;6992033;28;20231;-81
2023/03/07 04:52:56;;;;;;;15.57;10.07;;;;;;;8.98;42.79;97461.75;6990528;28;20232;-81
2023/03/07 04:56:17;;;;;;;15.93;9.53;;;;;;;9.15;42.73;97449.31;6989076;28;20714;-81
2023/03/07 04:59:40;;;;;;;13.40;9.30;;;;;;;9.10;42.20;97451.88;6990453;28;20307;-81
2023/03/07 05:03:01;;;;;;;13.37;8.97;;;;;;;9.20;42.09;97452.13;6988082;28;20686;-81
2023/03/07 05:06:23;;;;;;;13.90;9.50;;;;;;;9.04;42.21;97437.47;6987538;28;20289;-81
2023/03/07 05:09:45;;;;;;;14.53;9.17;;;;;;;8.69;42.29;97451.81;6987379;28;20291;-81
2023/03/07 05:13:06;;;;;;;13.57;9.67;;;;;;;8.57;43.13;97448.25;6987994;28;20767;-82
2023/03/07 05:16:29;;;;;;;16.37;9.60;;;;;;;9.22;42.08;97450.03;6986614;28;20347;-81
2023/03/07 05:19:51;;;;;;;16.17;10.17;;;;;;;9.32;41.77;97437.66;6988524;28;20292;-81
2023/03/07 05:23:12;;;;;;;15.80;10.03;;;;;;;8.84;42.09;97454.91;6989101;28;20206;-81
2023/03/07 05:26:34;;;;;;;11.90;8.80;;;;;;;9.02;42.13;97399.25;6988031;28;20352;-81
2023/03/07 05:29:55;;;;;;;13.63;8.57;;;;;;;8.93;41.77;97426.69;6988812;28;20250;-81
2023/03/07 05:33:18;;;;;;;14.37;9.47;;;;;;;8.55;42.95;97439.56;6990069;28;20261;-81
2023/03/07 05:36:40;;;;;;;12.13;9.30;;;;;;;8.90;42.06;97427.13;6989259;28;20217;-81
2023/03/07 05:40:03;;;;;;;13.47;9.50;;;;;;;8.88;42.11;97417.63;6991295;28;20226;-81
2023/03/07 05:43:24;;;;;;;13.50;8.97;;;;;;;9.03;42.10;97437.72;6990813;28;20216;-81
2023/03/07 05:46:46;;;;;;;13.17;9.43;;;;;;;8.77;42.05;97434.56;6990004;28;20241;-82
2023/03/07 05:50:10;;;;;;;15.13;10.67;;;;;;;9.17;41.03;97417.63;6992614;28;20230;-81
2023/03/07 05:53:32;;;;;;;12.37;8.23;;;;;;;9.15;41.76;97428.63;6992029;28;20259;-81
2023/03/07 05:56:53;;;;;;;14.23;9.30;;;;;;;8.93;41.56;97423.16;6992150;28;20671;-81
2023/03/07 06:00:15;;;;;;;14.93;9.27;;;;;;;8.77;42.03;97419.25;6992398;28;20229;-81
2023/03/07 06:03:37;;;;;;;14.00;9.20;;;;;;;8.90;42.04;97426.31;6991770;28;20234;-80
2023/03/07 06:07:00;;;;;;;15.70;8.90;;;;;;;9.01;41.64;97420.97;6984130;28;20347;-84
2023/03/07 06:10:22;;;;;;;11.40;9.10;;;;;;;8.55;42.33;97425.34;6997597;28;20233;-81
2023/03/07 06:13:43;;;;;;;15.00;9.13;;;;;;;8.98;41.58;97408.81;7001232;28;20201;-81
2023/03/07 06:17:05;;;;;;;12.47;8.00;;;;;;;8.90;41.50;97416.38;7011092;28;20257;-81
2023/03/07 06:20:27;;;;;;;14.97;9.93;;;;;;;8.71;41.50;97409.41;7005704;28;20274;-82
2023/03/07 06:23:50;;;;;;;12.83;8.60;;;;;;;8.17;42.45;97409.44;7005502;28;20255;-80
2023/03/07 06:27:11;;;;;;;13.27;8.87;;;;;;;8.44;42.29;97386.59;7014841;28;20228;-80
2023/03/07 06:30:33;;;;;;;14.53;8.37;;;;;;;8.88;41.30;97399.66;7013229;28;20234;-80
2023/03/07 06:33:54;;;;;;;11.57;8.33;;;;;;;8.74;41.52;97402.75;7000098;28;20698;-81
2023/03/07 06:37:16;;;;;;;14.53;9.20;;;;;;;9.07;40.94;97397.75;7004052;28;20335;-81
2023/03/07 06:40:39;;;;;;;11.67;8.30;;;;;;;8.48;41.28;97377.06;6985512;28;20222;-81
2023/03/07 06:44:00;;;;;;;13.33;8.30;;;;;;;7.96;42.28;97391.06;7001957;28;20256;-81
2023/03/07 06:47:22;;;;;;;12.67;8.53;;;;;;;8.77;41.60;97415.75;7018247;28;20221;-80
2023/03/07 06:50:44;;;;;;;12.17;8.30;;;;;;;8.56;42.01;97419.75;7015555;28;20229;-83
2023/03/07 06:54:05;;;;;;;14.60;9.07;;;;;;;8.20;41.81;97370.63;7016593;28;20239;-80
2023/03/07 06:57:28;;;;;;;13.93;8.67;;;;;;;8.68;41.02;97364.19;7020376;28;20255;-81
2023/03/07 07:00:49;;;;;;;12.17;8.40;;;;;;;8.75;41.63;97409.75;7020595;28;20275;-81
2023/03/07 07:04:11;;;;;;;10.53;8.17;;;;;;;8.74;41.57;97400.91;7019666;28;20233;-81
2023/03/07 07:07:32;;;;;;;11.30;8.60;;;;;;;8.82;40.88;97415.88;7017539;28;20205;-81
2023/03/07 07:10:54;;;;;;;12.03;8.53;;;;;;;8.60;41.94;97423.59;7015239;28;20324;-81
2023/03/07 07:14:17;;;;;;;14.13;8.80;;;;;;;8.93;41.29;97418.63;7007291;28;20243;-84
2023/03/07 07:17:38;;;;;;;11.70;7.43;;;;;;;9.03;40.95;97425.06;7005436;28;20213;-81
2023/03/07 07:21:00;;;;;;;11.77;8.63;;;;;;;9.16;40.85;97413.31;7004434;28;20221;-84
2023/03/07 07:24:22;;;;;;;10.17;8.00;;;;;;;9.09;40.80;97408.03;7004373;28;20277;-79
2023/03/07 07:27:43;;;;;;;10.53;7.67;;;;;;;9.02;41.60;97402.97;7004449;28;20201;-81
2023/03/07 07:31:06;;;;;;;9.10;7.50;;;;;;;8.96;41.20;97401.22;6996318;28;20389;-81
2023/03/07 07:34:28;;;;;;;16.50;8.33;;;;;;;8.74;40.98;97344.47;6999186;28;20269;-81
2023/03/07 07:37:49;;;;;;;15.43;7.37;;;;;;;9.45;40.71;97399.78;6989333;28;20237;-81
2023/03/07 07:41:11;;;;;;;9.80;7.30;;;;;;;9.31;40.50;97402.94;6995395;28;20292;-80
2023/03/07 07:44:32;;;;;;;11.90;8.37;;;;;;;8.48;42.47;97411.97;7004247;28;20635;-80
2023/03/07 07:47:55;;;;;;;11.90;7.30;;;;;;;8.87;41.86;97403.41;7001198;28;20190;-80
2023/03/07 07:51:17;;;;;;;10.97;7.90;;;;;;;9.31;41.01;97411.84;6976945;28;20291;-80
2023/03/07 07:54:38;;;;;;;11.90;7.43;;;;;;;9.64;39.91;97408.59;6977642;28;20358;-80
2023/03/07 07:58:00;;;;;;;12.07;8.00;;;;;;;8.71;41.05;97369.09;7001512;28;20255;-80
2023/03/07 08:01:23;;;;;;;9.97;8.07;;;;;;;8.92;41.70;97413.47;7001525;28;20709;-80
2023/03/07 08:04:46;;;;;;;9.17;7.40;;;;;;;9.68;40.12;97399.81;7001172;28;20313;-81
2023/03/07 08:08:07;;;;;;;11.60;8.60;;;;;;;9.63;40.54;97406.97;6999823;28;20202;-80
2023/03/07 08:11:29;;;;;;;10.10;7.10;;;;;;;10.14;39.34;97404.41;6997002;28;20312;-80
2023/03/07 08:14:51;;;;;;;10.93;8.20;;;;;;;10.21;39.11;97399.72;6999965;28;20350;-80
2023/03/07 08:18:12;;;;;;;12.37;7.90;;;;;;;10.14;39.84;97407.91;7008969;28;20194;-80
2023/03/07 08:21:35;;;;;;;10.70;8.07;;;;;;;10.57;38.79;97405.59;7006233;28;20205;-80
2023/03/07 08:24:57;;;;;;;11.70;8.03;;;;;;;10.80;38.61;97402.03;7001858;28;20677;-80
2023/03/07 08:28:18;;;;;;;8.67;7.33;;;;;;;10.41;38.57;97382.13;6976569;28;20211;-80
2023/03/07 08:31:43;;;;;;;10.97;7.73;;;;;;;10.75;37.89;97396.53;6976328;28;20313;-80
2023/03/07 08:35:05;;;;;;;17.83;10.60;;;;;;;10.26;38.63;97352.16;6977378;28;20736;-80
2023/03/07 08:38:28;;;;;;;11.00;8.00;;;;;;;10.55;38.17;97390.72;6987591;28;20205;-80
2023/03/07 08:41:50;;;;;;;12.00;7.77;;;;;;;10.31;39.07;97381.06;7004530;28;20292;-81
2023/03/07 08:45:12;;;;;;;12.03;8.53;;;;;;;10.77;38.35;97383.63;7002167;28;20217;-81
2023/03/07 08:48:33;;;;;;;11.73;8.53;;;;;;;11.27;37.81;97379.16;7001200;28;21050;-81
2023/03/07 08:51:55;;;;;;;10.50;8.10;;;;;;;10.88;37.35;97380.88;7026523;28;20311;-81
2023/03/07 08:55:18;;;;;;;12.73;8.57;;;;;;;11.05;38.67;97375.53;7041591;28;20225;-81
2023/03/07 08:58:39;;;;;;;10.60;7.30;;;;;;;11.02;38.22;97381.38;7014756;28;20788;-81
2023/03/07 09:02:02;;;;;;;12.30;8.20;;;;;;;10.82;37.51;97336.03;7015279;28;20693;-81
2023/03/07 09:05:24;;;;;;;10.30;7.57;;;;;;;11.60;36.93;97361.13;7013822;28;20311;-80
2023/03/07 09:08:46;;;;;;;8.80;7.40;;;;;;;12.04;35.88;97353.94;7012062;28;20289;-81
2023/03/07 09:12:09;;;;;;;11.60;8.60;;;;;;;11.15;37.01;97354.13;7012772;28;20312;-82
2023/03/07 09:15:31;;;;;;;10.10;7.10;;;;;;;11.17;36.84;97363.59;7002759;28;20344;-80
2023/03/07 09:18:52;;;;;;;11.53;8.53;;;;;;;11.83;35.68;97360.94;6998976;28;20309;-81
2023/03/07 09:22:14;;;;;;;9.77;6.93;;;;;;;12.40;35.19;97356.03;6985714;28;20280;-82
2023/03/07 09:25:36;;;;;;;10.60;7.33;;;;;;;12.36;35.15;97352.19;7001707;28;20654;-81
2023/03/07 09:28:59;;;;;;;11.30;8.13;;;;;;;12.26;34.49;97346.66;6991834;28;20723;-82
2023/03/07 09:32:20;;;;;;;10.00;7.07;;;;;;;12.68;34.23;97336.91;6994385;28;20268;-82
2023/03/07 09:35:42;;;;;;;11.60;7.27;;;;;;;12.75;33.60;97332.91;6986825;28;20291;-82
2023/03/07 09:39:04;;;;;;;11.20;7.27;;;;;;;12.80;33.59;97334.88;6986172;28;20257;-81
2023/03/07 09:42:28;;;;;;;10.90;7.50;;;;;;;13.15;33.01;97325.22;7013783;28;20232;-81
2023/03/07 09:46:00;;;;;;;9.83;7.83;;;;;;;12.38;34.04;97323.00;7008954;28;20248;-81
2023/03/07 09:49:25;;;;;;;9.03;6.60;;;;;;;11.31;33.53;97342.50;7008521;28;20770;-80
2023/03/07 09:52:47;;;;;;;9.93;5.80;;;;;;;11.15;34.12;97338.75;6981668;28;20307;-80
2023/03/07 09:56:13;;;;;;;9.10;5.23;;;;;;;11.02;33.86;97341.75;6975031;28;20347;-81
2023/03/07 09:59:38;;;;;;;6.43;5.70;;;;;;;10.89;34.02;97343.94;6981178;28;20732;-82
2023/03/07 10:03:10;;;;;;;6.20;5.60;;;;;;;10.88;34.02;97340.44;6981763;28;20301;-81
2023/03/07 10:06:35;;;;;;;9.93;5.77;;;;;;;10.68;34.14;97340.06;6980543;28;20296;-81
2023/03/07 10:10:00;;;;;;;13.07;6.97;;;;;;;10.49;34.84;97325.16;6987267;28;20256;-81
2023/03/07 10:13:32;;;;;;;8.07;6.30;;;;;;;10.57;34.31;97337.44;7006326;28;20270;-81
2023/03/07 10:17:00;;;;;;;8.63;6.40;;;;;;;10.17;35.18;97348.19;7005100;28;20221;-81
2023/03/07 10:20:25;;;;;;;7.17;6.00;;;;;;;10.45;35.30;97332.06;7006427;28;20258;-81
2023/03/07 10:24:03;;;;;;;9.10;6.33;;;;;;;10.74;34.87;97333.69;7006852;28;20209;-81
2023/03/07 10:27:27;;;;;;;7.80;5.70;;;;;;;10.72;34.91;97338.53;7003968;28;20292;-81
2023/03/07 10:30:49;;;;;;;7.37;6.00;;;;;;;10.28;35.30;97327.69;7001443;28;20304;-83
2023/03/07 10:34:16;;;;;;;7.23;6.53;;;;;;;10.27;36.13;97329.53;7004651;28;20658;-81
2023/03/07 10:37:49;;;;;;;6.93;5.73;;;;;;;10.73;35.49;97326.69;7004568;28;20209;-81
2023/03/07 10:41:14;;;;;;;9.10;6.90;;;;;;;10.97;36.09;97325.50;7005168;28;20221;-81
2023/03/07 10:44:36;;;;;;;8.13;6.03;;;;;;;10.57;36.38;97319.34;7006441;28;20293;-81
2023/03/07 10:47:58;;;;;;;9.33;6.93;;;;;;;11.01;36.11;97321.25;6985904;28;20285;-82
2023/03/07 10:51:36;;;;;;;7.93;6.07;;;;;;;11.04;36.00;97319.97;6976963;28;20321;-81
2023/03/07 10:55:31;;;;;;;9.37;7.30;;;;;;;11.19;36.34;97309.41;6982127;28;20280;-81
2023/03/07 10:59:01;;;;;;;9.43;6.93;;;;;;;10.87;36.76;97311.81;7003855;28;20315;-81
2023/03/07 11:02:30;;;;;;;10.90;6.90;;;;;;;10.76;36.22;97304.66;7018535;28;20202;-82
2023/03/07 11:05:51;;;;;;;9.97;6.63;;;;;;;10.48;35.94;97298.44;6994136;28;20287;-81
2023/03/07 11:09:18;;;;;;;10.67;6.70;;;;;;;10.80;35.94;97303.06;6984890;28;20387;-82
2023/03/07 11:12:45;;;;;;;12.67;8.00;;;;;;;9.93;36.91;97300.78;6979439;28;20315;-83
2023/03/07 11:16:16;;;;;;;11.60;8.27;;;;;;;10.34;36.27;97315.94;6986812;28;20198;-84
2023/03/07 11:19:41;;;;;;;9.80;7.37;;;;;;;10.37;36.06;97305.50;7003300;28;20230;-84
2023/03/07 11:23:22;;;;;;;10.40;7.53;;;;;;;9.95;36.37;97295.19;7008048;28;20225;-81
2023/03/07 11:26:43;;;;;;;10.67;7.00;;;;;;;10.14;35.80;97291.28;7006608;28;20296;-81
2023/03/07 11:30:16;;;;;;;8.17;6.63;;;;;;;10.02;35.99;97277.84;7006166;28;20316;-81
2023/03/07 11:33:47;;;;;;;9.40;7.40;;;;;;;10.35;35.06;97279.88;7006075;28;20304;-79
2023/03/07 11:37:26;;;;;;;7.57;6.10;;;;;;;10.03;35.20;97262.53;6987078;28;20312;-82
2023/03/07 11:40:52;;;;;;;7.90;6.60;;;;;;;9.94;36.07;97277.41;6989481;28;20312;-81
2023/03/07 11:44:26;;;;;;;13.63;7.20;;;;;;;10.06;35.50;97281.75;6988896;28;20198;-82
2023/03/07 11:47:52;;;;;;;10.67;8.53;;;;;;;10.15;35.77;97266.81;6991258;28;20660;-81
2023/03/07 11:51:30;;;;;;;10.77;7.37;;;;;;;10.22;35.85;97283.66;6994298;28;20238;-81
2023/03/07 11:54:59;;;;;;;8.30;6.47;;;;;;;10.02;35.11;97228.56;6998256;28;20687;-81
2023/03/07 11:58:48;;;;;;;11.80;7.90;;;;;;;10.36;35.62;97284.19;6986365;28;20288;-81
2023/03/07 12:02:28;;;;;;;11.80;7.30;;;;;;;10.50;34.53;97280.16;6995796;28;20233;-82
2023/03/07 12:06:05;;;;;;;21.23;11.73;;;;;;;10.18;34.84;97271.75;6989464;28;20293;-81
2023/03/07 12:09:38;;;;;;;10.77;8.10;;;;;;;10.10;35.07;97269.41;6984175;28;20253;-80
2023/03/07 12:13:09;;;;;;;9.10;6.40;;;;;;;10.85;33.56;97262.72;6972338;28;20571;-80
2023/03/07 12:16:40;;;;;;;9.07;7.23;;;;;;;10.81;33.70;97272.34;6977832;28;20198;-80
2023/03/07 12:20:17;;;;;;;8.77;6.87;;;;;;;10.34;34.62;97254.78;6996196;28;20408;-80
2023/03/07 12:23:41;;;;;;;7.90;6.23;;;;;;;10.41;33.46;97241.19;6987096;28;20799;-81
2023/03/07 12:27:09;;;;;;;7.80;6.23;;;;;;;9.87;34.51;97255.19;6974076;28;20344;-81
2023/03/07 12:30:37;;;;;;;8.77;6.57;;;;;;;10.21;33.91;97265.06;6973993;28;20764;-79
2023/03/07 12:34:02;;;;;;;9.80;6.03;;;;;;;10.09;33.89;97266.97;6968034;28;20210;-79
2023/03/07 12:37:26;;;;;;;8.77;5.97;;;;;;;9.97;34.24;97239.22;6966636;28;20254;-81
2023/03/07 12:40:49;;;;;;;8.50;6.40;;;;;;;10.07;34.14;97234.91;6978801;28;20225;-79
2023/03/07 12:44:17;;;;;;;9.67;7.10;;;;;;;10.07;34.32;97224.13;6995233;28;20202;-79
2023/03/07 12:47:51;;;;;;;8.33;6.40;;;;;;;10.49;33.41;97213.84;6993958;28;20230;-79
2023/03/07 12:51:19;;;;;;;10.90;7.17;;;;;;;10.69;33.77;97182.66;6995084;28;20284;-79
2023/03/07 12:54:44;;;;;;;8.67;6.47;;;;;;;10.73;33.12;97189.22;6995325;28;20763;-79
2023/03/07 12:58:12;;;;;;;12.87;6.40;;;;;;;10.58;33.25;97186.25;6994244;28;20300;-79
2023/03/07 13:01:37;;;;;;;8.47;5.60;;;;;;;10.42;33.62;97187.06;6994598;28;20257;-79
2023/03/07 13:05:01;;;;;;;7.37;6.17;;;;;;;10.70;33.40;97184.28;6998132;28;20211;-79
2023/03/07 13:08:23;;;;;;;8.60;5.77;;;;;;;10.94;32.84;97171.47;7005783;28;20290;-78
2023/03/07 13:12:19;;;;;;;7.80;6.07;;;;;;;10.38;33.64;97168.94;7004942;28;20686;-79
2023/03/07 13:16:03;;;;;;;8.57;6.10;;;;;;;10.83;33.42;97162.44;6997563;28;20284;-79
2023/03/07 13:19:59;;;;;;;10.07;6.67;;;;;;;10.63;33.49;97169.38;6999219;28;20225;-79
2023/03/07 13:23:28;;;;;;;7.17;5.87;;;;;;;10.85;32.95;97172.94;7002022;28;20587;-82
2023/03/07 13:26:53;;;;;;;8.43;6.30;;;;;;;11.17;32.39;97173.97;7006936;28;20197;-80
2023/03/07 13:30:18;;;;;;;9.80;6.30;;;;;;;11.23;32.91;97154.91;7007644;28;20227;-80
2023/03/07 13:33:39;;;;;;;7.90;5.90;;;;;;;10.67;32.83;97165.09;7006757;28;20226;-80
2023/03/07 13:37:48;;;;;;;14.20;6.47;;;;;;;10.63;34.07;97156.69;7005785;28;20355;-80
2023/03/07 13:41:11;;;;;;;10.23;5.97;;;;;;;10.40;33.45;97148.78;7006939;28;20235;-81
2023/03/07 13:44:38;;;;;;;9.23;6.17;;;;;;;11.50;32.56;97147.72;7006356;28;20216;-80
2023/03/07 13:48:00;;;;;;;8.57;6.07;;;;;;;11.56;32.35;97146.72;7006185;28;20742;-80
2023/03/07 13:51:21;;;;;;;7.10;5.77;;;;;;;11.55;31.33;97147.78;7006657;28;20267;-80
2023/03/07 13:54:47;;;;;;;12.43;6.77;;;;;;;11.07;33.23;97150.38;6997045;28;20215;-80
2023/03/07 13:58:19;;;;;;;6.67;5.70;;;;;;;11.47;31.89;97147.41;7006729;28;20368;-80
2023/03/07 14:01:43;;;;;;;6.43;5.20;;;;;;;11.17;32.23;97136.22;7007406;28;20193;-80
2023/03/07 14:05:05;;;;;;;7.03;5.27;;;;;;;11.15;32.21;97154.53;7006551;28;20206;-81
2023/03/07 14:08:29;;;;;;;6.53;4.90;;;;;;;11.09;32.26;97166.31;7006591;28;20296;-80
2023/03/07 14:11:58;;;;;;;6.60;4.33;;;;;;;11.03;32.19;97157.31;7006525;28;20229;-81
2023/03/07 14:15:26;;;;;;;6.77;4.70;;;;;;;11.30;31.59;97154.72;7004485;28;20625;-79
2023/03/07 14:18:57;;;;;;;6.93;5.43;;;;;;;10.84;32.75;97138.97;7003849;28;20704;-80
2023/03/07 14:22:27;;;;;;;5.00;4.50;;;;;;;10.84;32.84;97174.84;6978462;28;20305;-81
2023/03/07 14:25:50;;;;;;;5.17;4.57;;;;;;;10.91;33.09;97178.19;6988356;28;20300;-80
2023/03/07 14:29:16;;;;;;;6.90;4.80;;;;;;;10.95;33.31;97170.41;7005697;28;20278;-80
2023/03/07 14:32:40;;;;;;;6.10;4.73;;;;;;;10.92;33.34;97170.91;7005546;28;20270;-80
2023/03/07 14:36:03;;;;;;;6.33;4.73;;;;;;;11.05;33.48;97167.88;7006987;28;20670;-80
2023/03/07 14:39:29;;;;;;;8.63;5.30;;;;;;;11.31;32.89;97183.34;7006150;28;20249;-80
2023/03/07 14:42:54;;;;;;;5.20;4.70;;;;;;;11.32;32.84;97179.56;7005331;28;20304;-81
2023/03/07 14:46:23;;;;;;;7.87;4.90;;;;;;;11.08;33.37;97180.84;7005262;28;20217;-81
2023/03/07 14:49:51;;;;;;;9.67;5.00;;;;;;;10.70;33.40;97148.47;7006527;28;20299;-80
2023/03/07 14:53:16;;;;;;;6.20;4.90;;;;;;;11.69;31.98;97173.34;7005571;28;20370;-81
2023/03/07 14:56:38;;;;;;;5.20;4.33;;;;;;;11.33;32.50;97160.44;7004837;28;20201;-80
2023/03/07 15:00:15;;;;;;;5.70;4.70;;;;;;;11.19;32.83;97148.41;7006441;28;20226;-80
2023/03/07 15:03:45;;;;;;;5.60;5.00;;;;;;;11.57;32.46;97161.03;7007643;28;20185;-80
2023/03/07 15:07:10;;;;;;;6.43;5.07;;;;;;;11.57;32.77;97159.13;7005870;28;20303;-80
2023/03/07 15:10:37;;;;;;;6.70;4.50;;;;;;;11.79;32.06;97151.06;7006369;28;20249;-80
2023/03/07 15:14:00;;;;;;;4.83;4.17;;;;;;;11.44;32.55;97153.28;7004751;28;20210;-80
2023/03/07 15:17:24;;;;;;;6.77;4.87;;;;;;;11.40;32.55;97152.19;7018453;28;20264;-80
2023/03/07 15:20:48;;;;;;;8.03;4.70;;;;;;;11.70;32.08;97147.97;7007724;28;20233;-80
2023/03/07 15:24:16;;;;;;;9.17;4.63;;;;;;;12.40;31.49;97139.81;7007072;28;20208;-80
2023/03/07 15:27:38;;;;;;;4.87;4.37;;;;;;;11.76;31.75;97141.56;7005179;28;20319;-79
2023/03/07 15:31:00;;;;;;;5.13;4.03;;;;;;;11.60;32.06;97137.09;7005034;28;20264;-80
2023/03/07 15:34:24;;;;;;;4.10;3.80;;;;;;;11.80;31.84;97110.31;7006042;28;20319;-81
2023/03/07 15:37:56;;;;;;;6.27;4.23;;;;;;;12.11;31.44;97141.97;7005134;28;20300;-80
2023/03/07 15:41:30;;;;;;;4.10;3.70;;;;;;;11.62;32.65;97140.34;7005040;28;20367;-80
2023/03/07 15:44:55;;;;;;;7.30;5.70;;;;;;;11.65;32.47;97150.66;7003325;28;20274;-80
2023/03/07 15:48:26;;;;;;;5.40;4.53;;;;;;;11.52;32.13;97150.97;7002224;28;20383;-80
2023/03/07 15:51:50;;;;;;;4.40;4.00;;;;;;;11.46;32.12;97098.00;7001794;28;20901;-80
2023/03/07 15:55:19;;;;;;;4.70;4.00;;;;;;;11.88;32.23;97138.75;6994523;28;20205;-80
2023/03/07 15:58:43;;;;;;;5.70;4.40;;;;;;;12.21;31.74;97133.97;7001088;28;20315;-81
2023/03/07 16:02:47;;;;;;;5.77;4.70;;;;;;;12.59;31.41;97136.50;7001490;28;20210;-80